Time;durP1;ratioP1;P1;durP2;ratioP2;P2;SDS_P1;SDS_P2;PMS_P1;PMS_P2;Temp;Humidity;BMP_temperature;BMP_pressure;BME280_temperature;BME280_humidity;BME280_pressure;Samples;Min_cycle;Max_cycle;Signal;HPM_P1;HPM_P2
2020/12/27 00:01:44;;;;;;;17.52;7.07;;;;;;;26.13;30.17;96488.94;5029418;28;20063;-42
2020/12/27 00:04:10;;;;;;;15.88;7.35;;;;;;;26.10;30.25;96477.66;5036813;28;20091;-43
2020/12/27 00:06:36;;;;;;;18.38;7.50;;;;;;;26.12;30.28;96471.50;5039953;28;20539;-39
2020/12/27 00:09:02;;;;;;;17.48;7.00;;;;;;;26.13;30.24;96478.44;5036398;28;20029;-40
2020/12/27 00:11:28;;;;;;;18.00;7.15;;;;;;;26.13;30.29;96473.16;5031759;28;20040;-36
2020/12/27 00:13:53;;;;;;;15.95;6.95;;;;;;;26.11;30.11;96470.63;5053663;28;20069;-40
2020/12/27 00:16:23;;;;;;;15.05;6.95;;;;;;;26.09;30.06;96454.97;5036498;28;20059;-41
2020/12/27 00:18:48;;;;;;;15.52;6.30;;;;;;;26.12;30.22;96456.56;5040812;28;20037;-41
2020/12/27 00:21:15;;;;;;;16.35;6.57;;;;;;;26.13;30.09;96452.16;5034013;28;20519;-39
2020/12/27 00:23:40;;;;;;;13.88;5.93;;;;;;;26.12;30.04;96439.97;5034274;28;21808;-42
2020/12/27 00:26:10;;;;;;;14.75;6.05;;;;;;;26.13;30.19;96436.41;5033031;28;20041;-39
2020/12/27 00:28:36;;;;;;;10.38;5.35;;;;;;;26.13;30.21;96425.91;5039189;28;20048;-36
2020/12/27 00:31:02;;;;;;;12.85;5.65;;;;;;;26.13;30.21;96418.03;5036889;28;20037;-39
2020/12/27 00:33:28;;;;;;;10.18;5.22;;;;;;;26.10;30.31;96409.38;5042881;28;20044;-37
2020/12/27 00:35:54;;;;;;;11.40;5.93;;;;;;;26.10;30.13;96412.00;5038454;28;20041;-40
2020/12/27 00:38:19;;;;;;;12.85;5.78;;;;;;;26.09;30.21;96401.63;5042704;28;20045;-38
2020/12/27 00:40:45;;;;;;;12.43;5.55;;;;;;;26.09;30.13;96391.94;5042696;28;20415;-40
2020/12/27 00:43:11;;;;;;;10.00;5.18;;;;;;;26.08;30.13;96377.13;5034725;28;20041;-37
2020/12/27 00:45:36;;;;;;;10.68;5.43;;;;;;;26.08;30.21;96371.88;5033278;28;20056;-35
2020/12/27 00:48:01;;;;;;;11.43;5.38;;;;;;;26.07;30.06;96367.56;5038360;28;20057;-41
2020/12/27 00:50:27;;;;;;;10.38;4.82;;;;;;;26.07;30.14;96366.72;5036132;28;20411;-42
2020/12/27 00:52:54;;;;;;;10.75;5.20;;;;;;;26.09;30.05;96359.59;5044827;28;20045;-38
2020/12/27 00:55:20;;;;;;;10.30;4.80;;;;;;;26.08;30.12;96348.25;5034308;28;20707;-42
2020/12/27 00:57:45;;;;;;;12.07;4.90;;;;;;;26.04;30.18;96336.25;5028358;28;20036;-40
2020/12/27 01:00:11;;;;;;;12.43;5.30;;;;;;;26.06;30.17;96341.41;5034944;28;20041;-39
2020/12/27 01:02:37;;;;;;;10.48;5.00;;;;;;;26.05;30.09;96332.66;5032719;28;20047;-41
2020/12/27 01:05:03;;;;;;;9.73;4.43;;;;;;;26.04;30.25;96328.38;5033964;28;20049;-40
2020/12/27 01:07:29;;;;;;;8.07;4.55;;;;;;;26.04;30.41;96317.88;5036408;28;20629;-42
2020/12/27 01:09:54;;;;;;;10.40;4.57;;;;;;;26.02;30.21;96314.50;5042575;28;20510;-40
2020/12/27 01:12:20;;;;;;;9.43;4.60;;;;;;;26.01;30.20;96304.09;5035296;28;20644;-39
2020/12/27 01:14:46;;;;;;;13.13;4.40;;;;;;;26.01;30.27;96302.28;5035398;28;20126;-42
2020/12/27 01:17:12;;;;;;;12.02;4.70;;;;;;;26.00;30.28;96302.41;5044587;28;20619;-43
2020/12/27 01:19:38;;;;;;;8.70;4.50;;;;;;;26.00;30.30;96305.88;5030903;28;20033;-43
2020/12/27 01:22:04;;;;;;;8.88;4.30;;;;;;;25.99;30.22;96306.81;5039237;28;20434;-40
2020/12/27 01:24:29;;;;;;;9.63;4.53;;;;;;;25.96;30.23;96294.72;5034643;28;20040;-33
2020/12/27 01:26:55;;;;;;;7.30;4.18;;;;;;;25.97;30.29;96290.28;5032443;28;20570;-39
2020/12/27 01:29:22;;;;;;;8.73;4.43;;;;;;;25.99;30.32;96290.19;5039147;28;20118;-37
2020/12/27 01:31:47;;;;;;;9.50;3.80;;;;;;;25.98;30.27;96294.63;5034099;28;20047;-45
2020/12/27 01:34:13;;;;;;;10.13;4.53;;;;;;;26.00;30.09;96292.72;5036914;28;20036;-38
2020/12/27 01:36:41;;;;;;;7.32;3.97;;;;;;;26.00;30.32;96282.22;5035196;28;20056;-37
2020/12/27 01:39:07;;;;;;;10.18;4.10;;;;;;;25.98;30.26;96268.38;5038321;28;20064;-44
2020/12/27 01:41:33;;;;;;;6.82;4.00;;;;;;;25.97;30.12;96253.53;5032050;28;20091;-39
2020/12/27 01:44:01;;;;;;;8.88;4.57;;;;;;;25.98;30.28;96257.88;5042898;28;20719;-38
2020/12/27 01:46:27;;;;;;;9.32;4.13;;;;;;;25.95;30.31;96248.41;5035410;28;20060;-41
2020/12/27 01:48:53;;;;;;;8.73;3.78;;;;;;;25.97;30.11;96237.78;5038330;28;20060;-40
2020/12/27 01:51:18;;;;;;;7.38;4.30;;;;;;;25.97;30.20;96237.78;5029081;28;20458;-40
2020/12/27 01:53:45;;;;;;;8.63;3.97;;;;;;;25.98;30.17;96217.63;5031047;28;20115;-44
2020/12/27 01:56:12;;;;;;;6.93;3.83;;;;;;;25.97;30.17;96222.03;5029344;28;20036;-42
2020/12/27 01:58:37;;;;;;;7.18;3.90;;;;;;;25.96;30.22;96212.47;5033496;28;20523;-37
2020/12/27 02:01:03;;;;;;;7.45;3.63;;;;;;;25.96;30.24;96210.72;5045334;28;20032;-42
2020/12/27 02:03:28;;;;;;;6.85;3.78;;;;;;;25.95;30.36;96203.78;5033330;28;20499;-43
2020/12/27 02:05:54;;;;;;;7.03;3.33;;;;;;;25.94;30.04;96185.50;5039007;28;20043;-44
2020/12/27 02:08:20;;;;;;;7.28;3.90;;;;;;;25.94;30.08;96180.25;5033169;28;20044;-39
2020/12/27 02:10:47;;;;;;;9.20;3.65;;;;;;;25.93;29.65;96168.06;5034274;28;20049;-39
2020/12/27 02:13:12;;;;;;;7.13;3.58;;;;;;;25.92;29.89;96166.34;5029767;28;20056;-43
2020/12/27 02:15:38;;;;;;;8.40;3.63;;;;;;;25.90;30.06;96160.38;5038379;28;20428;-37
2020/12/27 02:18:04;;;;;;;7.40;3.25;;;;;;;25.91;30.16;96154.19;5036664;28;20048;-42
2020/12/27 02:20:30;;;;;;;7.15;3.40;;;;;;;25.91;30.34;96148.94;5031494;28;20036;-40
2020/12/27 02:22:56;;;;;;;6.57;3.65;;;;;;;25.87;30.14;96144.81;5039924;28;20045;-35
2020/12/27 02:25:21;;;;;;;8.13;3.30;;;;;;;25.87;30.20;96126.44;5035632;28;20049;-42
2020/12/27 02:27:47;;;;;;;6.13;3.22;;;;;;;25.88;30.35;96113.22;5029079;28;20032;-42
2020/12/27 02:30:12;;;;;;;5.80;3.03;;;;;;;25.86;30.43;96102.00;5035460;28;20047;-36
2020/12/27 02:32:38;;;;;;;7.88;3.60;;;;;;;25.85;30.20;96100.28;5033485;28;20033;-40
2020/12/27 02:35:04;;;;;;;6.97;3.28;;;;;;;25.87;30.19;96095.78;5036758;28;20051;-37
2020/12/27 02:37:29;;;;;;;6.07;3.17;;;;;;;25.86;30.17;96074.88;5036253;28;20029;-39
2020/12/27 02:39:55;;;;;;;5.40;2.85;;;;;;;25.87;30.28;96072.16;5038903;28;20059;-38
2020/12/27 02:42:20;;;;;;;5.32;2.90;;;;;;;25.87;30.15;96066.06;5036791;28;20429;-36
2020/12/27 02:45:10;;;;;;;4.82;2.97;;;;;;;25.82;30.31;96054.09;5031679;28;20103;-41
2020/12/27 02:47:31;;;;;;;6.28;2.85;;;;;;;25.81;30.20;96049.78;5038435;28;20554;-41
2020/12/27 02:49:57;;;;;;;5.28;2.95;;;;;;;25.80;30.33;96042.84;5035535;28;20040;-40
2020/12/27 02:52:23;;;;;;;4.38;2.67;;;;;;;25.82;30.25;96035.72;5033493;28;20099;-40
2020/12/27 02:54:49;;;;;;;5.82;2.90;;;;;;;25.78;30.25;96018.47;5038680;28;20064;-41
2020/12/27 02:57:14;;;;;;;4.88;2.55;;;;;;;25.78;30.34;96026.34;5041882;28;20045;-38
2020/12/27 02:59:40;;;;;;;5.43;2.80;;;;;;;25.78;30.25;96018.47;5032769;28;20041;-40
2020/12/27 03:02:06;;;;;;;20.05;3.40;;;;;;;25.79;30.53;96012.31;5024964;28;20045;-43
2020/12/27 03:04:31;;;;;;;10.32;2.80;;;;;;;25.79;30.25;96004.44;5034545;28;20048;-40
2020/12/27 03:06:57;;;;;;;12.52;2.88;;;;;;;25.79;30.38;95993.94;5036345;28;20055;-40
2020/12/27 03:09:22;;;;;;;6.15;2.80;;;;;;;25.78;30.36;95984.38;5031842;28;20043;-45
2020/12/27 03:11:48;;;;;;;5.78;2.80;;;;;;;25.79;30.25;95983.44;5038338;28;20123;-38
2020/12/27 03:14:13;;;;;;;4.90;2.67;;;;;;;25.78;30.42;95976.50;5035045;28;20073;-40
2020/12/27 03:16:40;;;;;;;5.75;2.60;;;;;;;25.78;30.20;95973.88;5035550;28;23299;-41
2020/12/27 03:19:06;;;;;;;5.57;2.80;;;;;;;25.79;30.30;95974.72;5033065;28;20047;-40
2020/12/27 03:21:31;;;;;;;5.95;2.63;;;;;;;25.78;30.29;95981.75;5040403;28;20483;-38
2020/12/27 03:23:57;;;;;;;5.18;2.55;;;;;;;25.79;30.20;95979.97;5041391;28;20037;-41
2020/12/27 03:26:22;;;;;;;5.13;2.40;;;;;;;25.79;30.28;95977.34;5032012;28;20052;-45
2020/12/27 03:28:48;;;;;;;6.70;2.72;;;;;;;25.80;30.22;95968.53;5040784;28;20056;-37
2020/12/27 03:31:14;;;;;;;6.13;2.20;;;;;;;25.78;30.32;95971.25;5033055;28;21910;-41
2020/12/27 03:33:39;;;;;;;5.65;2.67;;;;;;;25.78;30.34;95971.25;5042098;28;20577;-44
2020/12/27 03:36:05;;;;;;;4.72;2.38;;;;;;;25.77;30.28;95963.47;5036987;28;20037;-43
2020/12/27 03:38:30;;;;;;;7.35;2.92;;;;;;;25.75;30.29;95966.22;5030033;28;20045;-41
2020/12/27 03:40:56;;;;;;;5.95;2.38;;;;;;;25.77;30.21;95948.56;5040563;28;20598;-42
2020/12/27 03:43:21;;;;;;;3.83;2.20;;;;;;;25.76;30.49;95952.16;5044200;28;20049;-45
2020/12/27 03:45:47;;;;;;;4.22;2.20;;;;;;;25.71;30.35;95949.00;5026299;28;20084;-44
2020/12/27 03:48:13;;;;;;;4.78;2.20;;;;;;;25.78;30.24;95941.56;5016493;28;20507;-43
2020/12/27 03:50:39;;;;;;;5.20;2.42;;;;;;;25.77;30.28;95926.72;5035927;28;20037;-41
2020/12/27 03:53:05;;;;;;;5.80;2.38;;;;;;;25.75;30.42;95926.84;5029498;28;20386;-41
2020/12/27 03:55:31;;;;;;;5.22;2.45;;;;;;;25.75;30.36;95907.63;5029726;28;20511;-44
2020/12/27 03:57:56;;;;;;;3.47;2.00;;;;;;;25.74;30.38;95900.72;5031371;28;20036;-42
2020/12/27 04:00:25;;;;;;;3.13;1.95;;;;;;;25.73;30.28;95894.59;5031359;28;20043;-41
2020/12/27 04:02:51;;;;;;;4.05;2.08;;;;;;;25.74;30.23;95890.22;5041579;28;20508;-40
2020/12/27 04:05:16;;;;;;;3.80;2.05;;;;;;;25.73;30.33;95873.63;5033760;28;20033;-43
2020/12/27 04:07:42;;;;;;;3.63;2.10;;;;;;;25.72;30.25;95871.09;5038562;28;20036;-36
2020/12/27 04:10:09;;;;;;;4.45;2.15;;;;;;;25.72;30.39;95871.94;5035427;28;20127;-43
2020/12/27 04:12:34;;;;;;;6.28;1.90;;;;;;;25.72;30.32;95860.59;5035928;28;20036;-41
2020/12/27 04:15:00;;;;;;;3.03;2.15;;;;;;;25.71;30.24;95862.41;5039614;28;20036;-40
2020/12/27 04:17:26;;;;;;;4.78;2.40;;;;;;;25.68;30.35;95854.72;5052722;28;20592;-41
2020/12/27 04:19:51;;;;;;;5.47;2.17;;;;;;;25.68;30.52;95852.94;5042392;28;20033;-41
2020/12/27 04:22:17;;;;;;;4.03;1.83;;;;;;;25.71;30.41;95849.28;5039511;28;20040;-40
2020/12/27 04:24:43;;;;;;;3.53;1.80;;;;;;;25.70;30.30;95842.31;5030310;28;20040;-42
2020/12/27 04:27:08;;;;;;;2.97;1.70;;;;;;;25.69;30.20;95836.25;5031477;28;20033;-44
2020/12/27 04:29:34;;;;;;;2.55;1.77;;;;;;;25.69;30.29;95832.78;5037658;28;20053;-41
2020/12/27 04:32:00;;;;;;;3.38;1.70;;;;;;;25.69;30.32;95817.03;5034929;28;20041;-38
2020/12/27 04:34:25;;;;;;;2.40;1.48;;;;;;;25.69;30.45;95810.03;5052181;28;20041;-43
2020/12/27 04:36:51;;;;;;;3.42;2.00;;;;;;;25.68;30.38;95802.25;5038588;28;20040;-40
2020/12/27 04:39:16;;;;;;;2.85;1.55;;;;;;;25.67;30.21;95797.94;5043468;28;20048;-38
2020/12/27 04:41:42;;;;;;;5.57;1.90;;;;;;;25.67;30.41;95803.19;5049571;28;20039;-43
2020/12/27 04:44:07;;;;;;;2.70;1.90;;;;;;;25.66;30.24;95789.22;5041257;28;20389;-40
2020/12/27 04:46:33;;;;;;;3.45;1.80;;;;;;;25.67;30.24;95785.66;5009451;28;20232;-41
2020/12/27 04:48:58;;;;;;;3.05;1.70;;;;;;;25.68;30.46;95776.84;5034969;28;20068;-39
2020/12/27 04:51:25;;;;;;;1.90;1.23;;;;;;;25.67;30.18;95776.97;5040656;28;20047;-39
2020/12/27 04:53:51;;;;;;;2.78;1.60;;;;;;;25.68;30.16;95765.50;5041123;28;20032;-40
2020/12/27 04:56:17;;;;;;;3.08;2.00;;;;;;;25.67;30.26;95764.66;5035922;28;20052;-39
2020/12/27 04:58:42;;;;;;;3.58;2.17;;;;;;;25.67;30.31;95761.22;5036162;28;20539;-39
2020/12/27 05:01:09;;;;;;;2.35;1.48;;;;;;;25.65;30.20;95756.06;5029057;28;20056;-39
2020/12/27 05:03:35;;;;;;;2.60;1.55;;;;;;;25.66;30.28;95751.69;5039555;28;20591;-41
2020/12/27 05:06:01;;;;;;;2.60;1.58;;;;;;;25.65;30.41;95749.97;5040801;28;20059;-40
2020/12/27 05:08:27;;;;;;;3.00;1.55;;;;;;;25.64;30.33;95748.31;5043493;28;20071;-40
2020/12/27 05:10:53;;;;;;;2.47;1.50;;;;;;;25.64;30.56;95745.69;5033440;28;20045;-41
2020/12/27 05:13:19;;;;;;;2.03;1.45;;;;;;;25.63;30.19;95747.44;5041834;28;20068;-36
2020/12/27 05:15:45;;;;;;;2.17;1.63;;;;;;;25.62;30.60;95742.34;5033083;28;20455;-37
2020/12/27 05:18:11;;;;;;;1.42;1.30;;;;;;;25.62;30.46;95735.28;5034226;28;20045;-42
2020/12/27 05:20:38;;;;;;;5.13;1.60;;;;;;;25.61;30.54;95733.63;5046168;28;20044;-42
2020/12/27 05:23:05;;;;;;;4.03;1.85;;;;;;;25.61;30.63;95725.75;5041978;28;20048;-40
2020/12/27 05:25:31;;;;;;;2.28;1.50;;;;;;;25.59;30.68;95718.94;5032753;28;20052;-43
2020/12/27 05:28:07;;;;;;;2.50;1.40;;;;;;;25.60;30.45;95720.59;5035701;28;20133;-39
2020/12/27 05:30:33;;;;;;;1.98;1.50;;;;;;;25.58;30.62;95718.06;5040891;28;20053;-41
2020/12/27 05:32:59;;;;;;;1.90;1.50;;;;;;;25.59;30.56;95695.31;5040019;28;20029;-42
2020/12/27 05:35:24;;;;;;;2.88;1.50;;;;;;;25.58;30.33;95694.47;5038170;28;20707;-39
2020/12/27 05:37:50;;;;;;;2.67;1.38;;;;;;;25.57;30.69;95691.03;5041373;28;20037;-41
2020/12/27 05:40:17;;;;;;;2.40;1.23;;;;;;;25.58;30.39;95691.84;5031144;28;20041;-36
2020/12/27 05:42:43;;;;;;;3.13;1.48;;;;;;;25.60;30.36;95683.88;5038590;28;20037;-39
2020/12/27 05:45:17;;;;;;;1.88;1.25;;;;;;;25.60;30.29;95660.25;5027443;28;20045;-42
2020/12/27 05:47:43;;;;;;;2.45;1.60;;;;;;;25.59;30.32;95645.47;5036022;28;20032;-41
2020/12/27 05:50:12;;;;;;;2.35;1.63;;;;;;;25.59;30.25;95634.97;5034523;28;20069;-40
2020/12/27 05:52:43;;;;;;;2.47;1.25;;;;;;;25.58;30.22;95628.88;5040306;28;20505;-42
2020/12/27 05:55:08;;;;;;;3.13;1.83;;;;;;;25.55;30.21;95619.41;5038622;28;20091;-44
2020/12/27 05:57:34;;;;;;;2.15;1.45;;;;;;;25.56;30.51;95620.31;5049988;28;20036;-39
2020/12/27 06:00:02;;;;;;;2.30;1.23;;;;;;;25.55;30.36;95624.66;5035510;28;20138;-41
2020/12/27 06:02:38;;;;;;;2.42;1.30;;;;;;;25.55;30.35;95614.19;5030996;28;20463;-35
2020/12/27 06:05:20;;;;;;;5.10;1.50;;;;;;;25.55;30.38;95608.94;5038537;28;20044;-39
2020/12/27 06:07:46;;;;;;;2.33;1.50;;;;;;;25.53;30.58;95604.75;5052532;28;22080;-43
2020/12/27 06:10:20;;;;;;;2.38;1.40;;;;;;;25.54;30.60;95591.53;5030971;28;20028;-39
2020/12/27 06:13:04;;;;;;;2.85;1.33;;;;;;;25.53;30.29;95584.59;5041939;28;20036;-40
2020/12/27 06:15:30;;;;;;;2.38;1.40;;;;;;;25.52;30.23;95567.16;5037261;28;20044;-41
2020/12/27 06:18:09;;;;;;;2.00;1.17;;;;;;;25.54;30.44;95565.28;5035755;28;20736;-40
2020/12/27 06:20:39;;;;;;;1.20;0.90;;;;;;;25.53;30.36;95558.38;5028426;28;20671;-39
2020/12/27 06:23:05;;;;;;;1.58;1.05;;;;;;;25.54;30.49;95557.41;5042563;28;20047;-34
2020/12/27 06:25:30;;;;;;;2.17;1.35;;;;;;;25.55;30.46;95566.94;5031639;28;20553;-38
2020/12/27 06:27:57;;;;;;;1.65;1.10;;;;;;;25.53;30.28;95566.25;5030389;28;20036;-35
2020/12/27 06:30:24;;;;;;;1.98;1.10;;;;;;;25.55;30.34;95561.72;5040615;28;20519;-39
2020/12/27 06:32:54;;;;;;;1.75;1.30;;;;;;;25.55;30.50;95556.47;5034001;28;20060;-42
2020/12/27 06:35:33;;;;;;;2.30;1.33;;;;;;;25.54;30.61;95560.03;5032907;28;20694;-37
2020/12/27 06:37:59;;;;;;;2.00;1.25;;;;;;;25.53;30.65;95550.50;5038137;28;20593;-34
2020/12/27 06:40:25;;;;;;;2.15;1.20;;;;;;;25.52;30.42;95556.69;5033861;28;20057;-39
2020/12/27 06:42:51;;;;;;;1.40;1.27;;;;;;;25.51;30.51;95546.31;5023425;28;20059;-40
2020/12/27 06:45:27;;;;;;;2.75;1.30;;;;;;;25.52;30.62;95543.56;5030335;28;20042;-43
2020/12/27 06:47:56;;;;;;;1.42;1.15;;;;;;;25.54;30.35;95544.31;5040286;28;20072;-42
2020/12/27 06:50:23;;;;;;;2.13;1.15;;;;;;;25.51;30.53;95534.03;5033659;28;20103;-38
2020/12/27 06:52:49;;;;;;;1.35;1.20;;;;;;;25.53;30.54;95542.63;5032480;28;20037;-38
2020/12/27 06:55:41;;;;;;;1.50;1.15;;;;;;;25.53;30.40;95531.28;5029910;28;20044;-37
2020/12/27 06:58:22;;;;;;;1.17;0.82;;;;;;;25.52;30.51;95530.44;5033578;28;20448;-43
2020/12/27 07:00:49;;;;;;;1.45;1.05;;;;;;;25.50;30.45;95515.78;5030003;28;20072;-42
2020/12/27 07:03:20;;;;;;;1.63;1.00;;;;;;;25.48;30.56;95502.78;5032775;28;20118;-36
2020/12/27 07:05:50;;;;;;;2.03;1.23;;;;;;;25.47;30.46;95490.59;5038461;28;20041;-42
2020/12/27 07:08:17;;;;;;;2.75;1.27;;;;;;;25.48;30.42;95481.81;5045808;28;20041;-39
2020/12/27 07:10:45;;;;;;;2.13;1.20;;;;;;;25.47;30.55;95472.25;5036775;28;20065;-40
2020/12/27 07:13:11;;;;;;;1.80;0.98;;;;;;;25.49;30.53;95472.97;5037368;28;20045;-38
2020/12/27 07:15:59;;;;;;;1.23;1.08;;;;;;;25.49;30.34;95451.16;5032959;28;20056;-39
2020/12/27 07:18:26;;;;;;;1.45;1.00;;;;;;;25.49;30.23;95446.75;5036452;28;20029;-37
2020/12/27 07:20:54;;;;;;;2.15;1.20;;;;;;;25.52;30.32;95451.75;5042224;28;20427;-40
2020/12/27 07:23:24;;;;;;;2.03;1.10;;;;;;;25.51;30.52;95455.34;5046422;28;20095;-40
2020/12/27 07:25:57;;;;;;;0.95;0.75;;;;;;;25.51;30.47;95457.13;5032738;28;20504;-39
2020/12/27 07:28:23;;;;;;;2.25;1.20;;;;;;;25.50;30.38;95460.69;5036508;28;20069;-40
2020/12/27 07:30:48;;;;;;;1.40;1.00;;;;;;;25.51;30.50;95457.97;5032621;28;20045;-41
2020/12/27 07:33:14;;;;;;;1.63;0.90;;;;;;;25.51;30.56;95459.75;5033689;28;20057;-38
2020/12/27 07:35:39;;;;;;;1.30;1.00;;;;;;;25.50;30.44;95452.81;5032495;28;20041;-43
2020/12/27 07:38:06;;;;;;;2.47;0.90;;;;;;;25.50;30.40;95453.66;5042674;28;20094;-40
2020/12/27 07:40:35;;;;;;;2.30;1.10;;;;;;;25.50;30.49;95453.66;5031883;28;20067;-38
2020/12/27 07:43:01;;;;;;;1.95;0.80;;;;;;;25.51;30.50;95454.50;5039560;28;20083;-39
2020/12/27 07:45:27;;;;;;;2.58;0.80;;;;;;;25.51;30.58;95450.09;5037262;28;20404;-39
2020/12/27 07:47:53;;;;;;;1.27;0.85;;;;;;;25.49;30.58;95445.91;5042897;28;20044;-41
2020/12/27 07:50:19;;;;;;;2.17;1.00;;;;;;;25.50;30.36;95440.56;5029571;28;20041;-37
2020/12/27 07:53:00;;;;;;;0.73;0.60;;;;;;;25.49;30.48;95431.03;5032792;28;20045;-41
2020/12/27 07:55:30;;;;;;;1.42;1.00;;;;;;;25.50;30.42;95432.69;5027460;28;20036;-44
2020/12/27 07:58:00;;;;;;;4.10;1.20;;;;;;;25.51;30.43;95413.38;5033229;28;20159;-38
2020/12/27 08:00:33;;;;;;;5.75;1.10;;;;;;;25.53;30.52;95393.13;5033681;28;20029;-41
2020/12/27 08:03:03;;;;;;;3.65;1.13;;;;;;;25.52;30.54;95391.44;5042643;28;20020;-41
2020/12/27 08:05:29;;;;;;;10.70;1.40;;;;;;;25.49;30.19;95378.56;5033030;28;20025;-41
2020/12/27 08:08:06;;;;;;;12.77;1.83;;;;;;;25.51;30.08;95387.13;5041927;28;20048;-41
2020/12/27 08:10:32;;;;;;;10.15;1.60;;;;;;;25.51;30.30;95381.88;5053079;28;20024;-41
2020/12/27 08:12:58;;;;;;;3.97;1.40;;;;;;;25.48;30.11;95392.63;5033752;28;20033;-40
2020/12/27 08:15:25;;;;;;;9.80;1.45;;;;;;;25.49;30.22;95388.22;5029057;28;20040;-40
2020/12/27 08:17:58;;;;;;;6.60;1.67;;;;;;;25.48;30.40;95382.13;5028082;28;20045;-43
2020/12/27 08:20:24;;;;;;;25.80;1.92;;;;;;;25.47;30.50;95382.25;5028960;28;20416;-38
2020/12/27 08:23:06;;;;;;;28.25;2.92;;;;;;;25.48;30.01;95361.16;5028371;28;20075;-36
2020/12/27 08:25:33;;;;;;;50.50;3.53;;;;;;;25.44;27.53;95376.28;5029827;28;20052;-42
2020/12/27 08:27:59;;;;;;;39.03;5.15;;;;;;;25.34;25.27;95358.72;5031577;28;20041;-42
2020/12/27 08:30:25;;;;;;;26.63;3.22;;;;;;;25.23;23.82;95356.88;5028309;28;20040;-36
2020/12/27 08:33:13;;;;;;;15.00;4.10;;;;;;;25.06;23.05;95356.34;5029561;28;20041;-36
2020/12/27 08:35:41;;;;;;;14.52;3.28;;;;;;;24.85;23.64;95353.47;5023964;28;20036;-42
2020/12/27 08:38:25;;;;;;;6.90;2.90;;;;;;;24.63;23.63;95365.47;5027778;28;20550;-43
2020/12/27 08:40:59;;;;;;;6.63;2.55;;;;;;;24.39;23.63;95354.00;5029498;28;20033;-40
2020/12/27 08:43:50;;;;;;;7.97;2.88;;;;;;;24.16;23.38;95342.53;5043562;28;20274;-37
2020/12/27 08:46:18;;;;;;;9.02;3.10;;;;;;;23.94;23.52;95343.97;5024683;28;22221;-41
2020/12/27 08:48:49;;;;;;;7.47;2.30;;;;;;;23.80;25.44;95337.06;5027321;28;20132;-43
2020/12/27 08:51:14;;;;;;;5.88;1.77;;;;;;;23.79;28.63;95337.19;5039242;28;20735;-39
2020/12/27 08:53:42;;;;;;;13.27;2.05;;;;;;;23.85;29.16;95326.28;5039989;28;20044;-39
2020/12/27 08:56:08;;;;;;;9.68;1.90;;;;;;;23.96;29.05;95321.16;5035730;28;20025;-40
2020/12/27 08:58:34;;;;;;;7.35;1.80;;;;;;;24.06;29.26;95307.44;5037993;28;20095;-41
2020/12/27 09:01:00;;;;;;;7.85;1.92;;;;;;;24.17;29.18;95301.50;5032891;28;20036;-36
2020/12/27 09:03:26;;;;;;;3.63;1.75;;;;;;;24.27;29.11;95292.88;5041202;28;20045;-38
2020/12/27 09:05:52;;;;;;;5.97;1.63;;;;;;;24.35;28.99;95288.88;5044702;28;20040;-44
2020/12/27 09:08:18;;;;;;;6.68;2.90;;;;;;;24.31;20.36;95282.19;5031202;28;20542;-42
2020/12/27 09:10:47;;;;;;;6.78;1.98;;;;;;;24.24;25.38;95276.53;5038586;28;20040;-41
2020/12/27 09:13:14;;;;;;;5.47;1.98;;;;;;;24.19;27.43;95252.47;5039525;28;20048;-41
2020/12/27 09:15:49;;;;;;;7.90;1.85;;;;;;;24.38;28.16;95262.47;5045256;28;20076;-43
2020/12/27 09:18:27;;;;;;;12.82;1.77;;;;;;;24.43;28.63;95260.34;5031550;28;20570;-40
2020/12/27 09:20:57;;;;;;;4.72;1.90;;;;;;;24.45;28.89;95241.94;5042681;28;20119;-41
2020/12/27 09:23:23;;;;;;;7.78;1.52;;;;;;;24.56;28.81;95249.00;5045094;28;20447;-39
2020/12/27 09:25:49;;;;;;;3.63;1.25;;;;;;;24.59;28.92;95230.47;5042514;28;20048;-42
2020/12/27 09:28:16;;;;;;;14.18;1.75;;;;;;;24.64;29.08;95225.72;5045561;28;20140;-41
2020/12/27 09:30:41;;;;;;;5.13;1.58;;;;;;;24.58;29.36;95190.31;5042288;28;20049;-41
2020/12/27 09:33:07;;;;;;;7.60;1.58;;;;;;;24.74;29.09;95200.50;5043110;28;20557;-37
2020/12/27 09:35:32;;;;;;;9.60;2.15;;;;;;;24.78;29.34;95199.31;5045603;28;20047;-40
2020/12/27 09:37:58;;;;;;;6.15;1.38;;;;;;;24.83;29.08;95187.69;5035254;28;21955;-41
2020/12/27 09:40:23;;;;;;;5.43;1.30;;;;;;;24.85;29.24;95170.91;5029729;28;20553;-43
2020/12/27 09:43:01;;;;;;;4.72;1.10;;;;;;;24.88;29.26;95164.63;5034230;28;20120;-40
2020/12/27 09:45:26;;;;;;;4.65;1.17;;;;;;;24.90;29.39;95165.34;5031804;28;20040;-43
2020/12/27 09:47:53;;;;;;;5.95;1.55;;;;;;;24.95;29.37;95159.75;5039825;28;20035;-37
2020/12/27 09:50:29;;;;;;;2.25;1.30;;;;;;;24.98;29.40;95157.72;5046441;28;20490;-45
2020/12/27 09:52:55;;;;;;;3.05;1.27;;;;;;;25.01;29.45;95154.03;5035965;28;20052;-36
2020/12/27 09:55:21;;;;;;;2.72;1.10;;;;;;;25.04;29.52;95148.56;5038956;28;20262;-40
2020/12/27 09:57:46;;;;;;;6.20;1.40;;;;;;;25.07;29.75;95143.09;5044037;28;20040;-42
2020/12/27 10:00:12;;;;;;;8.00;1.40;;;;;;;25.10;29.58;95139.41;5040963;28;20100;-38
2020/12/27 10:02:37;;;;;;;6.25;1.60;;;;;;;25.08;29.77;95122.94;5041579;28;20683;-40
2020/12/27 10:05:03;;;;;;;4.65;2.08;;;;;;;25.09;24.29;95106.28;5038624;28;20518;-41
2020/12/27 10:07:30;;;;;;;5.72;3.03;;;;;;;24.64;15.41;95079.84;5040353;28;20073;-39
2020/12/27 10:09:55;;;;;;;7.53;3.10;;;;;;;23.96;17.81;95072.59;5041517;28;20130;-42
2020/12/27 10:12:21;;;;;;;8.10;2.88;;;;;;;23.64;19.18;95070.50;5035038;28;20052;-41
2020/12/27 10:14:47;;;;;;;9.68;2.75;;;;;;;23.53;21.78;95067.84;5040273;28;20547;-42
2020/12/27 10:17:12;;;;;;;6.60;2.30;;;;;;;23.53;22.92;95052.16;5039053;28;20033;-39
2020/12/27 10:19:38;;;;;;;10.55;2.33;;;;;;;23.56;23.86;95041.50;5046040;28;20041;-38
2020/12/27 10:22:03;;;;;;;4.65;2.45;;;;;;;23.58;24.16;95032.59;5024808;28;20041;-45
2020/12/27 10:24:31;;;;;;;6.85;2.17;;;;;;;23.65;24.36;95025.13;5041312;28;20045;-42
2020/12/27 10:27:00;;;;;;;7.60;2.17;;;;;;;23.71;24.87;95014.22;5034739;28;20013;-40
2020/12/27 10:29:26;;;;;;;10.88;2.10;;;;;;;23.81;24.92;95003.94;5037408;28;20063;-41
2020/12/27 10:31:53;;;;;;;6.18;1.92;;;;;;;23.90;25.33;94991.94;5028283;28;20672;-37
2020/12/27 10:34:19;;;;;;;5.53;2.22;;;;;;;23.97;25.36;94982.69;5039836;28;20033;-42
2020/12/27 10:36:48;;;;;;;16.73;2.35;;;;;;;24.05;25.36;94976.03;5040231;28;20053;-38
2020/12/27 10:39:14;;;;;;;13.73;2.05;;;;;;;24.10;25.71;94968.75;5032475;28;20292;-43
2020/12/27 10:41:42;;;;;;;9.50;2.08;;;;;;;24.09;25.65;94949.53;5045355;28;20669;-41
2020/12/27 10:44:08;;;;;;;17.17;2.42;;;;;;;24.15;25.98;94953.53;5039564;28;20048;-41
2020/12/27 10:46:34;;;;;;;11.20;2.15;;;;;;;24.24;26.29;94947.59;5047060;28;20128;-40
2020/12/27 10:49:00;;;;;;;26.00;2.45;;;;;;;24.31;26.25;94931.41;5038628;28;20110;-41
2020/12/27 10:51:25;;;;;;;8.88;2.00;;;;;;;24.37;26.43;94921.28;5044340;28;20044;-42
2020/12/27 10:53:51;;;;;;;20.50;3.45;;;;;;;24.43;26.36;94912.13;5045365;28;20065;-42
2020/12/27 10:56:16;;;;;;;15.65;3.35;;;;;;;24.50;26.63;94907.25;5041770;28;20110;-41
2020/12/27 10:58:42;;;;;;;14.88;2.70;;;;;;;24.59;26.60;94897.88;5049575;28;20052;-43
2020/12/27 11:01:07;;;;;;;13.32;2.83;;;;;;;24.64;26.57;94895.72;5048090;28;20029;-39
2020/12/27 11:03:33;;;;;;;16.85;2.72;;;;;;;24.70;26.78;94884.75;5028850;28;20110;-39
2020/12/27 11:05:59;;;;;;;12.13;2.83;;;;;;;24.73;26.51;94873.19;5043262;28;20112;-39
2020/12/27 11:08:24;;;;;;;11.30;2.40;;;;;;;24.75;26.60;94866.06;5049746;28;20041;-39
2020/12/27 11:10:50;;;;;;;12.63;2.78;;;;;;;24.78;26.74;94866.63;5047890;28;20044;-43
2020/12/27 11:13:15;;;;;;;7.95;2.58;;;;;;;24.83;26.99;94852.34;5045310;28;20033;-37
2020/12/27 11:15:41;;;;;;;13.50;2.35;;;;;;;24.85;26.81;94839.97;5047222;28;20041;-39
2020/12/27 11:18:07;;;;;;;8.82;2.28;;;;;;;24.90;26.78;94840.44;5042298;28;20037;-40
2020/12/27 11:20:32;;;;;;;7.90;2.40;;;;;;;24.92;26.81;94835.91;5049111;28;20036;-38
2020/12/27 11:22:58;;;;;;;10.25;2.35;;;;;;;24.95;26.79;94825.19;5044232;28;20041;-40
2020/12/27 11:25:24;;;;;;;6.45;1.95;;;;;;;24.97;27.04;94823.25;5046174;28;20075;-43
2020/12/27 11:27:51;;;;;;;9.05;2.33;;;;;;;24.89;27.03;94791.59;5043900;28;20067;-44
2020/12/27 11:30:18;;;;;;;6.53;1.90;;;;;;;25.01;27.04;94790.63;5048236;28;20051;-42
2020/12/27 11:32:43;;;;;;;5.53;2.08;;;;;;;25.03;27.16;94788.72;5048977;28;20043;-37